Fryeburg, Maine
Current Conditions -  °F | °C
As of 1:54 PM on Saturday 25 Oct 2014 (Local Time) from KIZG Reporting Station
Clear Clear  
Wind Chill: 64°   Ceiling: Unl
Heat Index: 64°   Visibility: 10mi
Dew Point: 37°   Wind: 3mph
Humidity: 37%   Direction: 140°SE
Pressure: 29.59"   Gusts: NA
Location:  44.02°N, 70.98°W
Report Text: KIZG 251754Z AUTO 14003KT 10SM CLR 18/03 A2959 RMK AO2 SLP020 T01780028 10183 20039 56028
Loading
Personal Weather Stations






























Interactive Weather Map
Tropical Storm Tracking
New forecast layout! Learn more

10-Day Weather Forecast

Advertisements
Track Severe Weather on mobile